createdAt,value
2017-08-23T00:00:18.494Z,968.61
2017-08-23T00:01:18.493Z,968.57
2017-08-23T00:02:18.515Z,968.57
2017-08-23T00:03:18.491Z,968.58
2017-08-23T00:04:18.489Z,968.6
2017-08-23T00:05:18.486Z,968.55
2017-08-23T00:06:18.486Z,968.54
2017-08-23T00:07:18.483Z,968.58
2017-08-23T00:08:18.484Z,968.59
2017-08-23T00:09:18.482Z,968.56
2017-08-23T00:10:18.479Z,968.6
2017-08-23T00:11:18.478Z,968.57
2017-08-23T00:12:18.476Z,968.58
2017-08-23T00:13:18.476Z,968.53
2017-08-23T00:14:18.477Z,968.53
2017-08-23T00:15:18.474Z,968.59
2017-08-23T00:16:18.471Z,968.59
2017-08-23T00:17:18.472Z,968.58
2017-08-23T00:18:18.469Z,968.6
2017-08-23T00:19:18.468Z,968.58
2017-08-23T00:20:18.466Z,968.56
2017-08-23T00:21:18.465Z,968.57
2017-08-23T00:22:18.464Z,968.54
2017-08-23T00:23:18.469Z,968.55
2017-08-23T00:24:18.461Z,968.53
2017-08-23T00:25:18.459Z,968.52
2017-08-23T00:26:18.459Z,968.54
2017-08-23T00:27:18.460Z,968.49
2017-08-23T00:28:18.455Z,968.5
2017-08-23T00:29:18.453Z,968.5
2017-08-23T00:30:18.453Z,968.49
2017-08-23T00:31:18.450Z,968.49
2017-08-23T00:32:18.451Z,968.5
2017-08-23T00:33:18.450Z,968.52
2017-08-23T00:34:18.448Z,968.54
2017-08-23T00:35:18.445Z,968.56
2017-08-23T00:36:18.444Z,968.51
2017-08-23T00:37:18.444Z,968.54
2017-08-23T00:38:18.443Z,968.57
2017-08-23T00:39:18.438Z,968.55
2017-08-23T00:40:18.439Z,968.55
2017-08-23T00:41:18.437Z,968.57
2017-08-23T00:42:18.434Z,968.56
2017-08-23T00:43:18.433Z,968.56
2017-08-23T00:44:18.433Z,968.58
2017-08-23T00:45:18.432Z,968.56
2017-08-23T00:46:18.430Z,968.58
2017-08-23T00:47:18.428Z,968.54
2017-08-23T00:48:18.428Z,968.58
2017-08-23T00:49:18.426Z,968.55
2017-08-23T00:50:18.423Z,968.57
2017-08-23T00:51:18.423Z,968.54
2017-08-23T00:52:18.423Z,968.53
2017-08-23T00:53:18.419Z,968.48
2017-08-23T00:54:18.419Z,968.51
2017-08-23T00:55:18.417Z,968.47
2017-08-23T00:56:18.416Z,968.46
2017-08-23T00:57:18.413Z,968.52
2017-08-23T00:58:18.413Z,968.44
2017-08-23T00:59:18.412Z,968.44
2017-08-23T01:00:18.408Z,968.48
2017-08-23T01:01:18.408Z,968.46
2017-08-23T01:02:18.407Z,968.47
2017-08-23T01:03:18.408Z,968.42
2017-08-23T01:04:18.404Z,968.42
2017-08-23T01:05:18.401Z,968.43
2017-08-23T01:06:18.402Z,968.4
2017-08-23T01:07:18.401Z,968.36
2017-08-23T01:08:18.398Z,968.43
2017-08-23T01:09:18.402Z,968.44
2017-08-23T01:10:18.395Z,968.43
2017-08-23T01:11:18.392Z,968.43
2017-08-23T01:12:18.400Z,968.42
2017-08-23T01:13:18.392Z,968.44
2017-08-23T01:14:18.390Z,968.4
2017-08-23T01:15:18.388Z,968.4
2017-08-23T01:16:18.387Z,968.41
2017-08-23T01:17:18.386Z,968.39
2017-08-23T01:18:18.385Z,968.44
2017-08-23T01:19:18.383Z,968.43
2017-08-23T01:20:18.382Z,968.41
2017-08-23T01:21:18.381Z,968.4
2017-08-23T01:22:18.380Z,968.38
2017-08-23T01:23:18.378Z,968.36
2017-08-23T01:24:18.383Z,968.33
2017-08-23T01:25:18.374Z,968.34
2017-08-23T01:26:18.373Z,968.31
2017-08-23T01:27:18.373Z,968.33
2017-08-23T01:28:18.371Z,968.35
2017-08-23T01:29:18.371Z,968.33
2017-08-23T01:30:18.366Z,968.38
2017-08-23T01:31:18.364Z,968.32
2017-08-23T01:32:18.365Z,968.32
2017-08-23T01:33:18.362Z,968.26
2017-08-23T01:34:18.361Z,968.29
2017-08-23T01:35:18.361Z,968.33
2017-08-23T01:36:18.358Z,968.29
2017-08-23T01:37:18.356Z,968.3
2017-08-23T01:38:18.355Z,968.29
2017-08-23T01:39:18.353Z,968.3
2017-08-23T01:40:18.353Z,968.27
2017-08-23T01:41:18.350Z,968.32
2017-08-23T01:42:18.350Z,968.32
2017-08-23T01:43:18.348Z,968.3
2017-08-23T01:44:18.347Z,968.31
2017-08-23T01:45:18.344Z,968.33
2017-08-23T01:46:18.343Z,968.34
2017-08-23T01:47:18.343Z,968.36
2017-08-23T01:48:18.341Z,968.36
2017-08-23T01:49:18.339Z,968.38
2017-08-23T01:50:18.338Z,968.4
2017-08-23T01:51:18.336Z,968.39
2017-08-23T01:52:18.336Z,968.4
2017-08-23T01:53:18.333Z,968.37
2017-08-23T01:54:18.332Z,968.36
2017-08-23T01:55:18.331Z,968.37
2017-08-23T01:56:18.328Z,968.29
2017-08-23T01:57:18.328Z,968.32
2017-08-23T01:58:18.327Z,968.32
2017-08-23T01:59:18.324Z,968.31
2017-08-23T02:00:18.324Z,968.31
2017-08-23T02:01:18.321Z,968.31
2017-08-23T02:02:18.319Z,968.33
2017-08-23T02:03:18.317Z,968.34
2017-08-23T02:04:18.317Z,968.37
2017-08-23T02:05:18.316Z,968.38
2017-08-23T02:06:18.313Z,968.36
2017-08-23T02:07:18.312Z,968.34
2017-08-23T02:08:18.311Z,968.28
2017-08-23T02:09:18.310Z,968.27
2017-08-23T02:10:18.306Z,968.23
2017-08-23T02:11:18.305Z,968.24
2017-08-23T02:12:18.305Z,968.21
2017-08-23T02:13:18.307Z,968.23
2017-08-23T02:14:18.301Z,968.17
2017-08-23T02:15:18.300Z,968.13
2017-08-23T02:16:18.298Z,968.08
2017-08-23T02:17:18.298Z,968.08
2017-08-23T02:18:18.294Z,968.09
2017-08-23T02:19:18.293Z,968.08
2017-08-23T02:20:18.293Z,968.09
2017-08-23T02:21:18.294Z,968.14
2017-08-23T02:22:18.290Z,968.15
2017-08-23T02:23:18.289Z,968.17
2017-08-23T02:24:18.292Z,968.19
2017-08-23T02:25:18.288Z,968.22
2017-08-23T02:26:18.287Z,968.27
2017-08-23T02:27:18.284Z,968.27
2017-08-23T02:28:18.281Z,968.25
2017-08-23T02:29:18.278Z,968.28
2017-08-23T02:30:18.277Z,968.33
2017-08-23T02:31:18.275Z,968.35
2017-08-23T02:32:18.274Z,968.39
2017-08-23T02:33:18.273Z,968.39
2017-08-23T02:34:18.272Z,968.4
2017-08-23T02:35:18.270Z,968.41
2017-08-23T02:36:18.269Z,968.37
2017-08-23T02:37:18.266Z,968.37
2017-08-23T02:38:18.271Z,968.35
2017-08-23T02:39:18.262Z,968.28
2017-08-23T02:40:18.266Z,968.25
2017-08-23T02:41:18.260Z,968.21
2017-08-23T02:42:18.259Z,968.24
2017-08-23T02:43:18.260Z,968.21
2017-08-23T02:44:18.257Z,968.17
2017-08-23T02:45:18.253Z,968.18
2017-08-23T02:46:18.253Z,968.18
2017-08-23T02:47:18.250Z,968.19
2017-08-23T02:48:18.250Z,968.21
2017-08-23T02:49:18.248Z,968.23
2017-08-23T02:50:18.247Z,968.22
2017-08-23T02:51:18.246Z,968.19
2017-08-23T02:52:18.244Z,968.2
2017-08-23T02:53:18.243Z,968.23
2017-08-23T02:54:18.241Z,968.22
2017-08-23T02:55:18.243Z,968.18
2017-08-23T02:56:18.240Z,968.17
2017-08-23T02:57:18.237Z,968.16
2017-08-23T02:58:18.236Z,968.18
2017-08-23T02:59:18.235Z,968.19
2017-08-23T03:00:18.232Z,968.19
2017-08-23T03:01:18.229Z,968.15
2017-08-23T03:02:18.229Z,968.09
2017-08-23T03:03:18.229Z,968.1
2017-08-23T03:04:18.226Z,968.12
2017-08-23T03:05:18.226Z,968.14
2017-08-23T03:06:18.223Z,968.11
2017-08-23T03:07:18.223Z,968.1
2017-08-23T03:08:18.221Z,968.09
2017-08-23T03:09:18.219Z,968.03
2017-08-23T03:10:18.216Z,968.04
2017-08-23T03:11:18.217Z,968.03
2017-08-23T03:12:18.214Z,968.02
2017-08-23T03:13:18.212Z,968.02
2017-08-23T03:14:18.212Z,968.03
2017-08-23T03:15:18.208Z,967.99
2017-08-23T03:16:18.208Z,968.01
2017-08-23T03:17:18.208Z,967.97
2017-08-23T03:18:18.206Z,967.99
2017-08-23T03:19:18.203Z,967.99
2017-08-23T03:20:18.203Z,967.99
2017-08-23T03:21:18.199Z,968.05
2017-08-23T03:22:18.198Z,968.05
2017-08-23T03:23:18.196Z,968
2017-08-23T03:24:18.196Z,968.07
2017-08-23T03:25:18.193Z,968.03
2017-08-23T03:26:18.191Z,968.01
2017-08-23T03:27:18.189Z,968.06
2017-08-23T03:28:18.190Z,968.06
2017-08-23T03:29:18.188Z,968.07
2017-08-23T03:30:18.192Z,968.07
2017-08-23T03:31:18.185Z,968.1
2017-08-23T03:32:18.183Z,968.09
2017-08-23T03:33:18.183Z,968.12
2017-08-23T03:34:18.180Z,968.11
2017-08-23T03:35:18.180Z,968.11
2017-08-23T03:36:18.178Z,968.09
2017-08-23T03:37:18.175Z,968.13
2017-08-23T03:38:18.172Z,968.11
2017-08-23T03:39:18.174Z,968.14
2017-08-23T03:40:18.171Z,968.16
2017-08-23T03:41:18.169Z,968.12
2017-08-23T03:42:18.166Z,968.13
2017-08-23T03:43:18.164Z,968.15
2017-08-23T03:44:18.163Z,968.14
2017-08-23T03:45:18.161Z,968.12
2017-08-23T03:46:18.160Z,968.12
2017-08-23T03:47:18.158Z,968.13
2017-08-23T03:48:18.155Z,968.13
2017-08-23T03:49:18.156Z,968.13
2017-08-23T03:50:18.153Z,968.16
2017-08-23T03:51:18.153Z,968.16
2017-08-23T03:52:18.151Z,968.14
2017-08-23T03:53:18.150Z,968.15
2017-08-23T03:54:18.147Z,968.16
2017-08-23T03:55:18.146Z,968.18
2017-08-23T03:56:18.144Z,968.17
2017-08-23T03:57:18.141Z,968.17
2017-08-23T03:58:18.141Z,968.17
2017-08-23T03:59:18.138Z,968.22
2017-08-23T04:00:18.137Z,968.21
2017-08-23T04:01:18.134Z,968.23
2017-08-23T04:02:18.133Z,968.28
2017-08-23T04:03:18.132Z,968.27
2017-08-23T04:04:18.130Z,968.33
2017-08-23T04:05:18.129Z,968.31
2017-08-23T04:06:18.127Z,968.38
2017-08-23T04:07:18.124Z,968.39
2017-08-23T04:08:18.123Z,968.39
2017-08-23T04:09:18.122Z,968.4
2017-08-23T04:10:18.120Z,968.42
2017-08-23T04:11:18.118Z,968.41
2017-08-23T04:12:18.116Z,968.4
2017-08-23T04:13:18.116Z,968.37
2017-08-23T04:14:18.117Z,968.39
2017-08-23T04:15:18.112Z,968.38
2017-08-23T04:16:18.110Z,968.39
2017-08-23T04:17:18.109Z,968.35
2017-08-23T04:18:18.105Z,968.35
2017-08-23T04:19:18.105Z,968.32
2017-08-23T04:20:18.103Z,968.31
2017-08-23T04:21:18.101Z,968.31
2017-08-23T04:22:18.101Z,968.26
2017-08-23T04:23:18.098Z,968.33
2017-08-23T04:24:18.096Z,968.36
2017-08-23T04:25:18.095Z,968.37
2017-08-23T04:26:18.093Z,968.35
2017-08-23T04:27:18.091Z,968.35
2017-08-23T04:28:18.088Z,968.35
2017-08-23T04:29:18.087Z,968.32
2017-08-23T04:30:18.086Z,968.32
2017-08-23T04:31:18.084Z,968.33
2017-08-23T04:32:18.083Z,968.32
2017-08-23T04:33:18.081Z,968.34
2017-08-23T04:34:18.078Z,968.32
2017-08-23T04:35:18.078Z,968.36
2017-08-23T04:36:18.075Z,968.41
2017-08-23T04:37:18.074Z,968.41
2017-08-23T04:38:18.073Z,968.41
2017-08-23T04:39:18.070Z,968.39
2017-08-23T04:40:18.069Z,968.36
2017-08-23T04:41:18.067Z,968.32
2017-08-23T04:42:18.066Z,968.27
2017-08-23T04:43:18.063Z,968.32
2017-08-23T04:44:18.061Z,968.31
2017-08-23T04:45:18.059Z,968.35
2017-08-23T04:46:18.058Z,968.37
2017-08-23T04:47:18.055Z,968.43
2017-08-23T04:48:18.053Z,968.43
2017-08-23T04:49:18.054Z,968.43
2017-08-23T04:50:18.052Z,968.39
2017-08-23T04:51:18.050Z,968.41
2017-08-23T04:52:18.047Z,968.39
2017-08-23T04:53:18.046Z,968.4
2017-08-23T04:54:18.044Z,968.45
2017-08-23T04:55:18.041Z,968.45
2017-08-23T04:56:18.040Z,968.42
2017-08-23T04:57:18.039Z,968.43
2017-08-23T04:58:18.037Z,968.43
2017-08-23T04:59:18.035Z,968.43
2017-08-23T05:00:18.034Z,968.47
2017-08-23T05:01:18.031Z,968.46
2017-08-23T05:02:18.031Z,968.51
2017-08-23T05:03:18.029Z,968.44
2017-08-23T05:04:18.037Z,968.46
2017-08-23T05:05:18.025Z,968.45
2017-08-23T05:06:18.025Z,968.45
2017-08-23T05:07:18.021Z,968.44
2017-08-23T05:08:18.020Z,968.49
2017-08-23T05:09:18.019Z,968.52
2017-08-23T05:10:18.016Z,968.5
2017-08-23T05:11:18.016Z,968.48
2017-08-23T05:12:18.114Z,968.43
2017-08-23T05:13:18.010Z,968.45
2017-08-23T05:14:18.111Z,968.43
2017-08-23T05:15:18.009Z,968.42
2017-08-23T05:16:18.008Z,968.46
2017-08-23T05:17:18.007Z,968.43
2017-08-23T05:18:18.004Z,968.46
2017-08-23T05:19:18.004Z,968.43
2017-08-23T05:20:18.002Z,968.45
2017-08-23T05:21:18.006Z,968.46
2017-08-23T05:22:17.997Z,968.44
2017-08-23T05:23:17.996Z,968.37
2017-08-23T05:24:17.994Z,968.36
2017-08-23T05:25:17.994Z,968.36
2017-08-23T05:26:17.992Z,968.44
2017-08-23T05:27:17.992Z,968.47
2017-08-23T05:28:17.989Z,968.46
2017-08-23T05:29:17.988Z,968.44
2017-08-23T05:30:17.986Z,968.46
2017-08-23T05:31:17.984Z,968.45
2017-08-23T05:32:17.982Z,968.47
2017-08-23T05:33:17.984Z,968.49
2017-08-23T05:34:18.079Z,968.46
2017-08-23T05:35:17.978Z,968.47
2017-08-23T05:36:17.977Z,968.53
2017-08-23T05:37:17.977Z,968.51
2017-08-23T05:38:17.973Z,968.51
2017-08-23T05:39:17.972Z,968.51
2017-08-23T05:40:17.971Z,968.48
2017-08-23T05:41:17.971Z,968.52
2017-08-23T05:42:17.968Z,968.51
2017-08-23T05:43:17.968Z,968.51
2017-08-23T05:44:17.966Z,968.5
2017-08-23T05:45:17.965Z,968.49
2017-08-23T05:46:17.963Z,968.49
2017-08-23T05:47:17.962Z,968.46
2017-08-23T05:48:17.962Z,968.46
2017-08-23T05:49:17.959Z,968.43
2017-08-23T05:50:17.958Z,968.43
2017-08-23T05:51:17.957Z,968.47
2017-08-23T05:52:17.956Z,968.45
2017-08-23T05:53:17.953Z,968.46
2017-08-23T05:54:17.951Z,968.45
2017-08-23T05:55:17.951Z,968.5
2017-08-23T05:56:17.949Z,968.44
2017-08-23T05:57:17.947Z,968.41
2017-08-23T05:58:17.947Z,968.46
2017-08-23T05:59:17.947Z,968.44
2017-08-23T06:00:17.942Z,968.44
2017-08-23T06:01:17.943Z,968.36
2017-08-23T06:02:17.941Z,968.39
2017-08-23T06:03:17.940Z,968.37
2017-08-23T06:04:17.938Z,968.37
2017-08-23T06:05:17.937Z,968.4
2017-08-23T06:06:18.037Z,968.39
2017-08-23T06:07:17.934Z,968.39
2017-08-23T06:08:17.933Z,968.43
2017-08-23T06:09:17.934Z,968.41
2017-08-23T06:10:17.934Z,968.39
2017-08-23T06:11:17.931Z,968.41
2017-08-23T06:12:17.931Z,968.45
2017-08-23T06:13:17.930Z,968.47
2017-08-23T06:14:17.930Z,968.46
2017-08-23T06:15:17.926Z,968.48
2017-08-23T06:16:17.925Z,968.49
2017-08-23T06:17:17.927Z,968.48
2017-08-23T06:18:17.925Z,968.51
2017-08-23T06:19:17.923Z,968.48
2017-08-23T06:20:17.924Z,968.49
2017-08-23T06:21:17.922Z,968.49
2017-08-23T06:22:17.920Z,968.5
2017-08-23T06:23:17.930Z,968.51
2017-08-23T06:24:17.921Z,968.56
2017-08-23T06:25:17.919Z,968.54
2017-08-23T06:26:17.917Z,968.54
2017-08-23T06:27:17.919Z,968.58
2017-08-23T06:28:17.915Z,968.56
2017-08-23T06:29:17.915Z,968.61
2017-08-23T06:30:17.915Z,968.62
2017-08-23T06:31:17.913Z,968.62
2017-08-23T06:32:17.913Z,968.61
2017-08-23T06:33:17.911Z,968.61
2017-08-23T06:34:17.913Z,968.62
2017-08-23T06:35:17.911Z,968.63
2017-08-23T06:36:17.911Z,968.62
2017-08-23T06:37:17.910Z,968.58
2017-08-23T06:38:18.010Z,968.56
2017-08-23T06:39:17.921Z,968.57
2017-08-23T06:40:17.909Z,968.57
2017-08-23T06:41:17.908Z,968.57
2017-08-23T06:42:17.908Z,968.53
2017-08-23T06:43:17.908Z,968.57
2017-08-23T06:44:17.906Z,968.52
2017-08-23T06:45:18.009Z,968.57
2017-08-23T06:46:17.907Z,968.52
2017-08-23T06:47:17.906Z,968.57
2017-08-23T06:48:17.909Z,968.59
2017-08-23T06:49:17.906Z,968.57
2017-08-23T06:50:17.907Z,968.6
2017-08-23T06:51:17.905Z,968.64
2017-08-23T06:52:17.905Z,968.66
2017-08-23T06:53:17.906Z,968.63
2017-08-23T06:54:17.906Z,968.64
2017-08-23T06:55:18.007Z,968.61
2017-08-23T06:56:17.904Z,968.65
2017-08-23T06:57:17.904Z,968.64
2017-08-23T06:58:17.905Z,968.63
2017-08-23T06:59:17.907Z,968.65
2017-08-23T07:00:17.902Z,968.57
2017-08-23T07:01:17.904Z,968.58
2017-08-23T07:02:17.905Z,968.54
2017-08-23T07:03:17.903Z,968.57
2017-08-23T07:04:17.903Z,968.56
2017-08-23T07:05:17.904Z,968.57
2017-08-23T07:06:17.903Z,968.57
2017-08-23T07:07:17.904Z,968.62
2017-08-23T07:08:17.904Z,968.61
2017-08-23T07:09:17.902Z,968.63
2017-08-23T07:10:17.903Z,968.67
2017-08-23T07:11:17.903Z,968.66
2017-08-23T07:12:17.903Z,968.7
2017-08-23T07:13:17.903Z,968.66
2017-08-23T07:14:17.903Z,968.68
2017-08-23T07:15:17.903Z,968.73
2017-08-23T07:16:17.903Z,968.71
2017-08-23T07:17:17.902Z,968.73
2017-08-23T07:18:17.906Z,968.74
2017-08-23T07:19:17.904Z,968.72
2017-08-23T07:20:18.001Z,968.74
2017-08-23T07:21:17.903Z,968.72
2017-08-23T07:22:17.903Z,968.72
2017-08-23T07:23:17.901Z,968.75
2017-08-23T07:24:17.903Z,968.74
2017-08-23T07:25:17.903Z,968.72
2017-08-23T07:26:17.906Z,968.76
2017-08-23T07:27:17.904Z,968.74
2017-08-23T07:28:17.904Z,968.72
2017-08-23T07:29:17.904Z,968.73
2017-08-23T07:30:17.909Z,968.7
2017-08-23T07:31:17.904Z,968.72
2017-08-23T07:32:17.904Z,968.7
2017-08-23T07:33:17.903Z,968.72
2017-08-23T07:34:17.906Z,968.72
2017-08-23T07:35:17.903Z,968.71
2017-08-23T07:36:17.904Z,968.74
2017-08-23T07:37:17.904Z,968.74
2017-08-23T07:38:17.904Z,968.72
2017-08-23T07:39:17.904Z,968.75
2017-08-23T07:40:17.905Z,968.72
2017-08-23T07:41:17.904Z,968.72
2017-08-23T07:42:17.904Z,968.72
2017-08-23T07:43:17.905Z,968.72
2017-08-23T07:44:17.909Z,968.72
2017-08-23T07:45:17.903Z,968.7
2017-08-23T07:46:17.903Z,968.75
2017-08-23T07:47:17.902Z,968.71
2017-08-23T07:48:17.905Z,968.77
2017-08-23T07:49:17.901Z,968.75
2017-08-23T07:50:17.900Z,968.7
2017-08-23T07:51:17.901Z,968.75
2017-08-23T07:52:17.901Z,968.7
2017-08-23T07:53:17.899Z,968.72
2017-08-23T07:54:17.900Z,968.7
2017-08-23T07:55:17.899Z,968.69
2017-08-23T07:56:17.899Z,968.7
2017-08-23T07:57:17.897Z,968.76
2017-08-23T07:58:17.897Z,968.74
2017-08-23T07:59:17.897Z,968.76
2017-08-23T08:00:17.897Z,968.74
2017-08-23T08:01:17.896Z,968.76
2017-08-23T08:02:17.897Z,968.74
2017-08-23T08:03:17.895Z,968.77
2017-08-23T08:04:17.894Z,968.74
2017-08-23T08:05:17.894Z,968.73
2017-08-23T08:06:17.894Z,968.74
2017-08-23T08:07:17.893Z,968.75
2017-08-23T08:08:17.891Z,968.79
2017-08-23T08:09:17.893Z,968.78
2017-08-23T08:10:17.891Z,968.78
2017-08-23T08:11:17.889Z,968.77
2017-08-23T08:12:17.988Z,968.76
2017-08-23T08:13:17.889Z,968.81
2017-08-23T08:14:17.889Z,968.81
2017-08-23T08:15:17.886Z,968.81
2017-08-23T08:16:17.887Z,968.85
2017-08-23T08:17:17.886Z,968.81
2017-08-23T08:18:17.887Z,968.81
2017-08-23T08:19:17.884Z,968.8
2017-08-23T08:20:17.884Z,968.84
2017-08-23T08:21:17.884Z,968.79
2017-08-23T08:22:17.883Z,968.82
2017-08-23T08:23:17.884Z,968.84
2017-08-23T08:24:17.982Z,968.8
2017-08-23T08:25:17.882Z,968.81
2017-08-23T08:26:17.881Z,968.83
2017-08-23T08:27:17.880Z,968.82
2017-08-23T08:28:17.880Z,968.79
2017-08-23T08:29:17.880Z,968.83
2017-08-23T08:30:17.878Z,968.78
2017-08-23T08:31:17.979Z,968.82
2017-08-23T08:32:17.879Z,968.82
2017-08-23T08:33:17.877Z,968.81
2017-08-23T08:34:17.876Z,968.81
2017-08-23T08:35:17.977Z,968.85
2017-08-23T08:36:17.876Z,968.89
2017-08-23T08:37:17.876Z,968.87
2017-08-23T08:38:17.874Z,968.9
2017-08-23T08:39:17.876Z,968.86
2017-08-23T08:40:17.874Z,968.88
2017-08-23T08:41:17.873Z,968.87
2017-08-23T08:42:17.873Z,968.87
2017-08-23T08:43:17.873Z,968.83
2017-08-23T08:44:17.878Z,968.82
2017-08-23T08:45:17.871Z,968.86
2017-08-23T08:46:17.872Z,968.83
2017-08-23T08:47:17.872Z,968.81
2017-08-23T08:48:17.872Z,968.81
2017-08-23T08:49:17.871Z,968.8
2017-08-23T08:50:17.870Z,968.78
2017-08-23T08:51:17.869Z,968.72
2017-08-23T08:52:17.868Z,968.73
2017-08-23T08:53:17.869Z,968.77
2017-08-23T08:54:17.868Z,968.78
2017-08-23T08:55:17.867Z,968.77
2017-08-23T08:56:17.965Z,968.77
2017-08-23T08:57:17.867Z,968.78
2017-08-23T08:58:17.868Z,968.78
2017-08-23T08:59:17.867Z,968.75
2017-08-23T09:00:17.866Z,968.75
2017-08-23T09:01:17.865Z,968.76
2017-08-23T09:02:17.866Z,968.74
2017-08-23T09:03:17.865Z,968.78
2017-08-23T09:04:17.865Z,968.76
2017-08-23T09:05:17.865Z,968.78
2017-08-23T09:06:17.864Z,968.78
2017-08-23T09:07:17.864Z,968.8
2017-08-23T09:08:17.864Z,968.76
2017-08-23T09:09:17.863Z,968.77
2017-08-23T09:10:17.862Z,968.76
2017-08-23T09:11:17.862Z,968.71
2017-08-23T09:12:17.864Z,968.72
2017-08-23T09:13:17.863Z,968.71
2017-08-23T09:14:17.862Z,968.69
2017-08-23T09:15:17.863Z,968.7
2017-08-23T09:16:17.864Z,968.69
2017-08-23T09:17:17.861Z,968.68
2017-08-23T09:18:17.860Z,968.67
2017-08-23T09:19:17.863Z,968.71
2017-08-23T09:20:17.860Z,968.7
2017-08-23T09:21:17.860Z,968.68
2017-08-23T09:22:17.960Z,968.68
2017-08-23T09:23:17.863Z,968.67
2017-08-23T09:24:17.858Z,968.65
2017-08-23T09:25:17.858Z,968.67
2017-08-23T09:26:17.858Z,968.63
2017-08-23T09:27:17.963Z,968.62
2017-08-23T09:28:17.858Z,968.68
2017-08-23T09:29:17.857Z,968.67
2017-08-23T09:30:17.956Z,968.68
2017-08-23T09:31:17.856Z,968.68
2017-08-23T09:32:17.855Z,968.69
2017-08-23T09:33:17.855Z,968.69
2017-08-23T09:34:17.854Z,968.68
2017-08-23T09:35:17.853Z,968.7
2017-08-23T09:36:17.853Z,968.72
2017-08-23T09:37:17.853Z,968.65
2017-08-23T09:38:17.851Z,968.67
2017-08-23T09:39:17.850Z,968.65
2017-08-23T09:40:17.851Z,968.73
2017-08-23T09:41:17.849Z,968.66
2017-08-23T09:42:17.851Z,968.71
2017-08-23T09:43:17.847Z,968.69
2017-08-23T09:44:17.847Z,968.7
2017-08-23T09:45:17.846Z,968.73
2017-08-23T09:46:17.846Z,968.73
2017-08-23T09:47:17.845Z,968.73
2017-08-23T09:48:17.844Z,968.67
2017-08-23T09:49:17.844Z,968.69
2017-08-23T09:50:17.841Z,968.68
2017-08-23T09:51:17.841Z,968.65
2017-08-23T09:52:17.841Z,968.64
2017-08-23T09:53:17.940Z,968.66
2017-08-23T09:54:17.838Z,968.62
2017-08-23T09:55:17.838Z,968.62
2017-08-23T09:56:17.837Z,968.6
2017-08-23T09:57:17.835Z,968.62
2017-08-23T09:58:17.836Z,968.62
2017-08-23T09:59:17.834Z,968.61
2017-08-23T10:00:17.833Z,968.6
2017-08-23T10:01:17.831Z,968.6
2017-08-23T10:02:17.831Z,968.55
2017-08-23T10:03:17.836Z,968.56
2017-08-23T10:04:17.830Z,968.58
2017-08-23T10:05:17.828Z,968.54
2017-08-23T10:06:17.828Z,968.48
2017-08-23T10:07:17.829Z,968.49
2017-08-23T10:08:17.827Z,968.49
2017-08-23T10:09:17.824Z,968.45
2017-08-23T10:10:17.823Z,968.43
2017-08-23T10:11:17.823Z,968.47
2017-08-23T10:12:17.821Z,968.44
2017-08-23T10:13:17.820Z,968.43
2017-08-23T10:14:17.819Z,968.44
2017-08-23T10:15:17.819Z,968.41
2017-08-23T10:16:17.817Z,968.45
2017-08-23T10:17:17.817Z,968.45
2017-08-23T10:18:17.814Z,968.41
2017-08-23T10:19:17.814Z,968.45
2017-08-23T10:20:17.913Z,968.45
2017-08-23T10:21:17.812Z,968.4
2017-08-23T10:22:17.836Z,968.37
2017-08-23T10:23:17.809Z,968.41
2017-08-23T10:24:17.808Z,968.41
2017-08-23T10:25:17.807Z,968.34
2017-08-23T10:26:17.805Z,968.33
2017-08-23T10:27:17.805Z,968.34
2017-08-23T10:28:17.804Z,968.3
2017-08-23T10:29:17.804Z,968.31
2017-08-23T10:30:17.799Z,968.32
2017-08-23T10:31:17.800Z,968.28
2017-08-23T10:32:17.802Z,968.29
2017-08-23T10:33:17.798Z,968.25
2017-08-23T10:34:17.798Z,968.25
2017-08-23T10:35:17.796Z,968.25
2017-08-23T10:36:17.795Z,968.23
2017-08-23T10:37:17.794Z,968.2
2017-08-23T10:38:17.892Z,968.18
2017-08-23T10:39:17.791Z,968.2
2017-08-23T10:40:17.792Z,968.19
2017-08-23T10:41:17.789Z,968.16
2017-08-23T10:42:17.788Z,968.13
2017-08-23T10:43:17.885Z,968.18
2017-08-23T10:44:17.885Z,968.09
2017-08-23T10:45:17.784Z,968.16
2017-08-23T10:46:17.783Z,968.15
2017-08-23T10:47:17.782Z,968.13
2017-08-23T10:48:17.780Z,968.11
2017-08-23T10:49:17.881Z,968.12
2017-08-23T10:50:17.779Z,968.1
2017-08-23T10:51:17.778Z,968.12
2017-08-23T10:52:17.775Z,968.11
2017-08-23T10:53:17.774Z,968.11
2017-08-23T10:54:17.874Z,968.13
2017-08-23T10:55:17.773Z,968.13
2017-08-23T10:56:17.772Z,968.1
2017-08-23T10:57:17.770Z,968.11
2017-08-23T10:58:17.769Z,968.13
2017-08-23T10:59:17.768Z,968.14
2017-08-23T11:00:17.768Z,968.12
2017-08-23T11:01:17.765Z,968.12
2017-08-23T11:02:17.767Z,968.12
2017-08-23T11:03:17.763Z,968.13
2017-08-23T11:04:17.763Z,968.15
2017-08-23T11:05:17.762Z,968.12
2017-08-23T11:06:17.760Z,968.16
2017-08-23T11:07:17.759Z,968.13
2017-08-23T11:08:17.757Z,968.16
2017-08-23T11:09:17.756Z,968.14
2017-08-23T11:10:17.854Z,968.14
2017-08-23T11:11:17.754Z,968.15
2017-08-23T11:12:17.751Z,968.14
2017-08-23T11:13:17.751Z,968.16
2017-08-23T11:14:17.751Z,968.15
2017-08-23T11:15:17.751Z,968.15
2017-08-23T11:16:17.747Z,968.15
2017-08-23T11:17:17.745Z,968.13
2017-08-23T11:18:17.745Z,968.16
2017-08-23T11:19:17.743Z,968.13
2017-08-23T11:20:17.743Z,968.18
2017-08-23T11:21:17.738Z,968.14
2017-08-23T11:22:17.738Z,968.14
2017-08-23T11:23:17.737Z,968.07
2017-08-23T11:24:17.737Z,968.12
2017-08-23T11:25:17.733Z,968.08
2017-08-23T11:26:17.733Z,968.09
2017-08-23T11:27:17.731Z,968.11
2017-08-23T11:28:17.732Z,968.09
2017-08-23T11:29:17.728Z,968.13
2017-08-23T11:30:17.728Z,968.11
2017-08-23T11:31:17.728Z,968.15
2017-08-23T11:32:17.825Z,968.15
2017-08-23T11:33:17.723Z,968.14
2017-08-23T11:34:17.721Z,968.14
2017-08-23T11:35:17.720Z,968.15
2017-08-23T11:36:17.723Z,968.19
2017-08-23T11:37:17.717Z,968.17
2017-08-23T11:38:17.715Z,968.15
2017-08-23T11:39:17.717Z,968.22
2017-08-23T11:40:17.713Z,968.14
2017-08-23T11:41:17.764Z,968.14
2017-08-23T11:42:17.711Z,968.17
2017-08-23T11:43:17.709Z,968.16
2017-08-23T11:44:17.707Z,968.14
2017-08-23T11:45:17.706Z,968.11
2017-08-23T11:46:17.707Z,968.1
2017-08-23T11:47:17.705Z,968.16
2017-08-23T11:48:17.702Z,968.15
2017-08-23T11:49:17.702Z,968.14
2017-08-23T11:50:17.700Z,968.13
2017-08-23T11:51:17.697Z,968.15
2017-08-23T11:52:17.697Z,968.15
2017-08-23T11:53:17.695Z,968.13
2017-08-23T11:54:17.693Z,968.14
2017-08-23T11:55:17.692Z,968.13
2017-08-23T11:56:17.691Z,968.13
2017-08-23T11:57:17.691Z,968.1
2017-08-23T11:58:17.690Z,968.11
2017-08-23T11:59:17.727Z,968.11
2017-08-23T12:00:17.685Z,968.05
2017-08-23T12:01:17.683Z,968.08
2017-08-23T12:02:17.680Z,968.07
2017-08-23T12:03:17.681Z,968.03
2017-08-23T12:04:17.780Z,968.07
2017-08-23T12:05:17.678Z,968.05
2017-08-23T12:06:17.675Z,967.99
2017-08-23T12:07:17.703Z,968
2017-08-23T12:08:17.777Z,968
2017-08-23T12:09:17.671Z,968.02
2017-08-23T12:10:17.669Z,967.99
2017-08-23T12:11:17.669Z,968
2017-08-23T12:12:17.669Z,968.01
2017-08-23T12:13:17.664Z,968.02
2017-08-23T12:14:17.664Z,968.01
2017-08-23T12:15:17.665Z,967.98
2017-08-23T12:16:17.659Z,967.94
2017-08-23T12:17:17.663Z,967.97
2017-08-23T12:18:17.657Z,967.94
2017-08-23T12:19:17.668Z,967.91
2017-08-23T12:20:17.654Z,967.92
2017-08-23T12:21:17.652Z,967.89
2017-08-23T12:22:17.753Z,967.89
2017-08-23T12:23:17.651Z,967.85
2017-08-23T12:24:17.650Z,967.83
2017-08-23T12:25:17.648Z,967.87
2017-08-23T12:26:17.649Z,967.88
2017-08-23T12:27:17.646Z,967.89
2017-08-23T12:28:17.643Z,967.92
2017-08-23T12:29:17.743Z,967.89
2017-08-23T12:30:17.642Z,967.86